createdAt,value
2023-03-05T00:01:38.837Z,101105.81
2023-03-05T00:06:41.889Z,101093.88
2023-03-05T00:11:43.831Z,101086.97
2023-03-05T00:16:45.519Z,101084.88
2023-03-05T00:21:48.574Z,101080.34
2023-03-05T00:26:50.417Z,101076.75
2023-03-05T00:31:52.189Z,101064.78
2023-03-05T00:36:55.513Z,101067.44
2023-03-05T00:41:57.187Z,101047.63
2023-03-05T00:46:58.892Z,101059.06
2023-03-05T00:52:01.995Z,101041.31
2023-03-05T00:57:05.713Z,101045.59
2023-03-05T01:02:07.449Z,101033.59
2023-03-05T01:07:10.539Z,101020.63
2023-03-05T01:12:12.980Z,101028.38
2023-03-05T01:17:14.674Z,101026.91
2023-03-05T01:22:17.924Z,101007.97
2023-03-05T01:27:19.602Z,101007.16
2023-03-05T01:32:21.353Z,101005.59
2023-03-05T01:37:24.409Z,100999.66
2023-03-05T01:42:26.078Z,100978.34
2023-03-05T01:47:27.896Z,100986.13
2023-03-05T01:52:31.339Z,100966.13
2023-03-05T01:57:34.125Z,100958.19
2023-03-05T02:02:35.848Z,100963.50
2023-03-05T02:07:40.096Z,100962.78
2023-03-05T02:12:41.872Z,100957.59
2023-03-05T02:17:43.582Z,100952.53
2023-03-05T02:22:46.613Z,100949.06
2023-03-05T02:27:52.290Z,100936.88
2023-03-05T02:32:54.055Z,100931.69
2023-03-05T02:37:57.686Z,100933.66
2023-03-05T02:42:59.444Z,100919.97
2023-03-05T02:48:02.275Z,100919.50
2023-03-05T02:53:05.503Z,100912.75
2023-03-05T02:58:07.365Z,100908.28
2023-03-05T03:03:09.408Z,100899.38
2023-03-05T03:08:13.026Z,100893.44
2023-03-05T03:13:14.708Z,100895.25
2023-03-05T03:18:16.460Z,100884.19
2023-03-05T03:23:19.530Z,100876.34
2023-03-05T03:28:21.234Z,100877.19
2023-03-05T03:33:22.923Z,100866.69
2023-03-05T03:38:26.130Z,100864.16
2023-03-05T03:43:27.833Z,100855.63
2023-03-05T03:48:29.654Z,100856.59
2023-03-05T03:53:32.733Z,100850.44
2023-03-05T03:58:34.406Z,100840.16
2023-03-05T04:03:36.093Z,100830.56
2023-03-05T04:08:39.129Z,100836.53
2023-03-05T04:13:40.805Z,100827.56
2023-03-05T04:18:42.712Z,100821.53
2023-03-05T04:23:45.688Z,100815.59
2023-03-05T04:28:48.302Z,100813.34
2023-03-05T04:33:50.122Z,100814.81
2023-03-05T04:38:53.231Z,100805.47
2023-03-05T04:43:54.965Z,100802.00
2023-03-05T04:48:57.417Z,100799.72
2023-03-05T04:54:00.479Z,100799.78
2023-03-05T04:59:02.236Z,100797.34
2023-03-05T05:04:03.949Z,100794.91
2023-03-05T05:09:06.983Z,100789.56
2023-03-05T05:14:08.724Z,100789.97
2023-03-05T05:19:10.589Z,100792.56
2023-03-05T05:24:14.796Z,100787.59
2023-03-05T05:29:16.505Z,100786.81
2023-03-05T05:34:18.214Z,100782.38
2023-03-05T05:39:21.269Z,100780.72
2023-03-05T05:44:22.950Z,100772.09
2023-03-05T05:49:24.769Z,100769.53
2023-03-05T05:54:27.802Z,100770.31
2023-03-05T05:59:29.697Z,100764.31
2023-03-05T06:04:31.401Z,100767.13
2023-03-05T06:09:36.338Z,100768.84
2023-03-05T06:14:38.067Z,100762.00
2023-03-05T06:19:39.741Z,100770.72
2023-03-05T06:24:42.782Z,100768.16
2023-03-05T06:29:44.531Z,100761.41
2023-03-05T06:34:46.222Z,100758.84
2023-03-05T06:39:49.309Z,100760.72
2023-03-05T06:44:50.988Z,100758.69
2023-03-05T06:49:52.708Z,100749.13
2023-03-05T06:54:55.858Z,100761.13
2023-03-05T06:59:57.525Z,100754.31
2023-03-05T07:04:59.181Z,100757.13
2023-03-05T07:10:02.301Z,100748.59
2023-03-05T07:15:04.764Z,100748.22
2023-03-05T07:20:08.329Z,100747.72
2023-03-05T07:25:11.476Z,100735.41
2023-03-05T07:30:13.657Z,100741.88
2023-03-05T07:35:15.573Z,100736.56
2023-03-05T07:40:19.114Z,100736.50
2023-03-05T07:45:20.802Z,100732.91
2023-03-05T07:50:22.517Z,100723.50
2023-03-05T07:55:25.562Z,100720.25
2023-03-05T08:00:27.341Z,100716.94
2023-03-05T08:05:29.038Z,100721.13
2023-03-05T08:10:32.126Z,100721.41
2023-03-05T08:15:33.912Z,100713.47
2023-03-05T08:20:36.127Z,100719.84
2023-03-05T08:25:39.204Z,100710.75
2023-03-05T08:30:41.020Z,100699.56
2023-03-05T08:35:42.805Z,100707.31
2023-03-05T08:40:45.871Z,100701.84
2023-03-05T08:45:49.522Z,100708.13
2023-03-05T08:50:51.293Z,100699.44
2023-03-05T08:55:57.837Z,100703.81
2023-03-05T09:00:59.569Z,100697.63
2023-03-05T09:06:01.440Z,100703.50
2023-03-05T09:11:05.016Z,100707.13
2023-03-05T09:16:07.892Z,100701.91
2023-03-05T09:21:11.303Z,100695.50
2023-03-05T09:26:15.596Z,100697.31
2023-03-05T09:31:17.403Z,100692.81
2023-03-05T09:36:20.571Z,100692.75
2023-03-05T09:41:29.863Z,100691.38
2023-03-05T09:46:38.938Z,100686.03
2023-03-05T09:51:41.956Z,100686.38
2023-03-05T09:56:45.790Z,100677.47
2023-03-05T10:01:47.533Z,100675.94
2023-03-05T10:06:50.431Z,100677.50
2023-03-05T10:11:55.136Z,100674.13
2023-03-05T10:17:34.420Z,100665.13
2023-03-05T10:22:38.645Z,100655.13
2023-03-05T10:27:48.264Z,100640.91
2023-03-05T10:32:52.737Z,100658.44
2023-03-05T10:38:05.338Z,100655.97
2023-03-05T10:43:16.147Z,100641.88
2023-03-05T10:48:25.655Z,100621.34
2023-03-05T10:53:28.195Z,100618.03
2023-03-05T10:58:31.404Z,100620.56
2023-03-05T11:03:47.328Z,100618.88
2023-03-05T11:08:49.039Z,100606.09
2023-03-05T11:13:54.704Z,100613.22
2023-03-05T11:19:20.681Z,100606.66
2023-03-05T11:24:22.357Z,100601.00
2023-03-05T11:29:26.105Z,100591.50
2023-03-05T11:34:31.508Z,100592.63
2023-03-05T11:39:35.232Z,100587.66
2023-03-05T11:44:41.796Z,100579.69
2023-03-05T11:49:44.784Z,100572.41
2023-03-05T11:54:52.010Z,100584.63
2023-03-05T11:59:55.552Z,100573.03
2023-03-05T12:04:59.392Z,100562.31
2023-03-05T12:10:01.903Z,100548.00
2023-03-05T12:15:23.842Z,100542.69
2023-03-05T12:20:27.870Z,100540.78
2023-03-05T12:25:32.385Z,100531.78
2023-03-05T12:30:54.841Z,100528.06
2023-03-05T12:36:24.538Z,100521.59
2023-03-05T12:41:34.368Z,100514.72
2023-03-05T12:46:37.828Z,100504.97
2023-03-05T12:51:39.767Z,100495.50
2023-03-05T12:56:41.424Z,100479.78
2023-03-05T13:01:45.792Z,100471.69
2023-03-05T13:06:48.014Z,100466.19
2023-03-05T13:11:51.962Z,100451.88
2023-03-05T13:16:55.010Z,100460.00
2023-03-05T13:22:00.163Z,100461.34
2023-03-05T13:27:01.866Z,100461.97
2023-03-05T13:32:19.393Z,100459.22
2023-03-05T13:37:21.679Z,100456.31
2023-03-05T13:42:23.962Z,100446.94
2023-03-05T13:47:28.594Z,100449.38
2023-03-05T13:52:31.573Z,100445.41
2023-03-05T13:57:37.902Z,100440.56
2023-03-05T14:02:41.966Z,100433.31
2023-03-05T14:07:43.753Z,100425.88
2023-03-05T14:12:45.661Z,100415.81
2023-03-05T14:17:48.715Z,100414.84
2023-03-05T14:22:51.287Z,100406.28
2023-03-05T14:27:53.029Z,100399.81
2023-03-05T14:32:56.348Z,100383.75
2023-03-05T14:37:58.611Z,100389.53
2023-03-05T14:43:00.670Z,100376.97
2023-03-05T14:48:04.718Z,100366.72
2023-03-05T14:53:07.955Z,100362.28
2023-03-05T14:58:11.661Z,100350.94
2023-03-05T15:03:16.111Z,100340.50
2023-03-05T15:08:18.906Z,100341.44
2023-03-05T15:13:20.833Z,100337.97
2023-03-05T15:18:23.912Z,100327.72
2023-03-05T15:23:25.742Z,100318.88
2023-03-05T15:28:27.496Z,100319.63
2023-03-05T15:33:30.737Z,100318.41
2023-03-05T15:38:32.450Z,100323.13
2023-03-05T15:43:34.304Z,100317.03
2023-03-05T15:48:37.399Z,100310.94
2023-03-05T15:53:39.100Z,100303.13
2023-03-05T15:58:43.212Z,100296.94
2023-03-05T16:03:46.284Z,100286.50
2023-03-05T16:08:48.057Z,100286.59
2023-03-05T16:13:50.436Z,100282.31
2023-03-05T16:18:53.695Z,100272.81
2023-03-05T16:23:55.383Z,100282.31
2023-03-05T16:28:57.185Z,100280.44
2023-03-05T16:34:00.270Z,100266.50
2023-03-05T16:39:02.910Z,100264.44
2023-03-05T16:44:05.024Z,100258.25
2023-03-05T16:49:08.571Z,100254.00
2023-03-05T16:54:10.354Z,100246.13
2023-03-05T16:59:12.138Z,100244.56
2023-03-05T17:04:15.195Z,100245.41
2023-03-05T17:09:19.221Z,100254.06
2023-03-05T17:14:20.918Z,100250.41
2023-03-05T17:19:23.983Z,100243.31
2023-03-05T17:24:25.758Z,100237.13
2023-03-05T17:29:27.681Z,100243.94
2023-03-05T17:34:36.516Z,100235.19
2023-03-05T17:39:38.614Z,100234.69
2023-03-05T17:44:40.299Z,100241.34
2023-03-05T17:49:43.387Z,100243.34
2023-03-05T17:54:45.034Z,100244.09
2023-03-05T17:59:46.687Z,100245.63
2023-03-05T18:04:52.016Z,100235.19
2023-03-05T18:09:53.678Z,100235.94
2023-03-05T18:14:55.405Z,100232.53
2023-03-05T18:19:58.593Z,100227.25
2023-03-05T18:25:00.359Z,100224.56
2023-03-05T18:30:02.205Z,100220.19
2023-03-05T18:35:06.032Z,100214.13
2023-03-05T18:40:09.757Z,100202.03
2023-03-05T18:45:12.495Z,100191.50
2023-03-05T18:50:16.793Z,100196.53
2023-03-05T18:55:19.746Z,100187.03
2023-03-05T19:00:22.704Z,100192.28
2023-03-05T19:05:28.524Z,100187.19
2023-03-05T19:10:31.492Z,100179.44
2023-03-05T19:15:33.257Z,100172.47
2023-03-05T19:20:36.300Z,100174.19
2023-03-05T19:25:40.019Z,100172.50
2023-03-05T19:30:42.148Z,100160.44
2023-03-05T19:35:45.789Z,100159.59
2023-03-05T19:40:47.713Z,100150.03
2023-03-05T19:45:49.466Z,100155.03
2023-03-05T19:50:52.496Z,100148.03
2023-03-05T19:55:54.200Z,100145.34
2023-03-05T20:00:55.938Z,100140.97
2023-03-05T20:05:58.968Z,100140.88
2023-03-05T20:11:00.774Z,100131.28
2023-03-05T20:16:02.813Z,100126.09
2023-03-05T20:21:06.339Z,100124.41
2023-03-05T20:26:08.057Z,100111.47
2023-03-05T20:31:09.885Z,100109.94
2023-03-05T20:36:13.129Z,100109.88
2023-03-05T20:41:16.517Z,100102.16
2023-03-05T20:46:19.243Z,100099.53
2023-03-05T20:51:24.348Z,100090.13
2023-03-05T20:56:29.139Z,100084.88
2023-03-05T21:01:31.366Z,100079.78
2023-03-05T21:06:34.625Z,100064.25
2023-03-05T21:11:37.144Z,100068.66
2023-03-05T21:16:39.028Z,100060.84
2023-03-05T21:21:45.511Z,100058.31
2023-03-05T21:26:47.360Z,100047.91
2023-03-05T21:31:49.128Z,100045.31
2023-03-05T21:36:52.309Z,100035.75
2023-03-05T21:42:05.631Z,100033.13
2023-03-05T21:47:07.409Z,100032.28
2023-03-05T21:52:11.656Z,100022.78
2023-03-05T21:57:14.686Z,100017.63
2023-03-05T22:02:17.405Z,100010.69
2023-03-05T22:07:19.314Z,100002.91
2023-03-05T22:12:32.908Z,100004.63
2023-03-05T22:17:34.665Z,99990.94
2023-03-05T22:22:36.473Z,99981.38
2023-03-05T22:27:39.789Z,99968.50
2023-03-05T22:32:41.505Z,99964.28
2023-03-05T22:37:43.388Z,99956.59
2023-03-05T22:42:46.580Z,99952.25
2023-03-05T22:47:48.946Z,99946.13
2023-03-05T22:52:51.378Z,99952.19
2023-03-05T22:57:54.511Z,99938.38
2023-03-05T23:02:56.439Z,99928.94
2023-03-05T23:07:58.174Z,99927.28
2023-03-05T23:13:01.340Z,99922.09
2023-03-05T23:18:03.305Z,99921.13
2023-03-05T23:23:05.049Z,99920.19
2023-03-05T23:28:08.101Z,99918.44
2023-03-05T23:33:13.348Z,99920.13
2023-03-05T23:38:15.125Z,99918.34
2023-03-05T23:43:18.305Z,99914.03
2023-03-05T23:48:20.185Z,99915.72
2023-03-05T23:53:23.014Z,99911.44
2023-03-05T23:58:26.005Z,99911.44
